sensor_id;sensor_type;location;lat;lon;timestamp;pressure;altitude;pressure_sealevel;temperature;humidity
58373;BME280;44177;43.356;27.672;2023-02-18T00:01:01;98639.91;;;5.69;66.69
58373;BME280;44177;43.356;27.672;2023-02-18T00:03:27;98629.09;;;5.69;66.58
58373;BME280;44177;43.356;27.672;2023-02-18T00:05:53;98627.19;;;5.70;66.64
58373;BME280;44177;43.356;27.672;2023-02-18T00:08:19;98626.06;;;5.71;66.66
58373;BME280;44177;43.356;27.672;2023-02-18T00:10:45;98621.47;;;5.72;66.64
58373;BME280;44177;43.356;27.672;2023-02-18T00:13:11;98616.06;;;5.72;66.60
58373;BME280;44177;43.356;27.672;2023-02-18T00:15:37;98609.63;;;5.67;66.67
58373;BME280;44177;43.356;27.672;2023-02-18T00:18:03;98610.66;;;5.72;66.66
58373;BME280;44177;43.356;27.672;2023-02-18T00:20:29;98600.91;;;5.71;66.72
58373;BME280;44177;43.356;27.672;2023-02-18T00:22:54;98595.97;;;5.73;66.74
58373;BME280;44177;43.356;27.672;2023-02-18T00:25:20;98594.41;;;5.72;66.75
58373;BME280;44177;43.356;27.672;2023-02-18T00:27:46;98590.56;;;5.73;66.69
58373;BME280;44177;43.356;27.672;2023-02-18T00:30:11;98587.84;;;5.73;66.75
58373;BME280;44177;43.356;27.672;2023-02-18T00:32:37;98587.56;;;5.74;66.64
58373;BME280;44177;43.356;27.672;2023-02-18T00:35:03;98575.94;;;5.74;66.63
58373;BME280;44177;43.356;27.672;2023-02-18T00:37:28;98572.13;;;5.75;66.67
58373;BME280;44177;43.356;27.672;2023-02-18T00:39:54;98565.59;;;5.76;66.62
58373;BME280;44177;43.356;27.672;2023-02-18T00:42:19;98573.72;;;5.76;66.66
58373;BME280;44177;43.356;27.672;2023-02-18T00:44:45;98564.00;;;5.75;66.65
58373;BME280;44177;43.356;27.672;2023-02-18T00:47:10;98562.91;;;5.76;66.65
58373;BME280;44177;43.356;27.672;2023-02-18T00:49:36;98556.69;;;5.75;66.70
58373;BME280;44177;43.356;27.672;2023-02-18T00:52:01;98553.16;;;5.75;66.80
58373;BME280;44177;43.356;27.672;2023-02-18T00:54:27;98544.53;;;5.73;66.56
58373;BME280;44177;43.356;27.672;2023-02-18T00:56:52;98544.25;;;5.74;66.81
58373;BME280;44177;43.356;27.672;2023-02-18T00:59:18;98542.34;;;5.75;66.81
58373;BME280;44177;43.356;27.672;2023-02-18T01:01:43;98542.03;;;5.76;66.78
58373;BME280;44177;43.356;27.672;2023-02-18T01:04:09;98545.56;;;5.77;66.82
58373;BME280;44177;43.356;27.672;2023-02-18T01:06:34;98536.63;;;5.76;66.97
58373;BME280;44177;43.356;27.672;2023-02-18T01:09:00;98541.25;;;5.76;66.83
58373;BME280;44177;43.356;27.672;2023-02-18T01:11:25;98542.84;;;5.77;66.79
58373;BME280;44177;43.356;27.672;2023-02-18T01:13:51;98534.72;;;5.77;66.84
58373;BME280;44177;43.356;27.672;2023-02-18T01:16:16;98530.72;;;5.74;66.83
58373;BME280;44177;43.356;27.672;2023-02-18T01:18:42;98535.22;;;5.79;66.86
58373;BME280;44177;43.356;27.672;2023-02-18T01:21:08;98540.13;;;5.77;66.88
58373;BME280;44177;43.356;27.672;2023-02-18T01:23:36;98534.41;;;5.78;66.82
58373;BME280;44177;43.356;27.672;2023-02-18T01:26:02;98533.63;;;5.78;66.83
58373;BME280;44177;43.356;27.672;2023-02-18T01:28:28;98523.28;;;5.80;66.87
58373;BME280;44177;43.356;27.672;2023-02-18T01:30:53;98517.06;;;5.79;66.82
58373;BME280;44177;43.356;27.672;2023-02-18T01:33:19;98514.66;;;5.78;66.82
58373;BME280;44177;43.356;27.672;2023-02-18T01:35:45;98513.56;;;5.79;66.92
58373;BME280;44177;43.356;27.672;2023-02-18T01:38:11;98514.66;;;5.78;66.94
58373;BME280;44177;43.356;27.672;2023-02-18T01:40:47;98508.44;;;5.77;66.93
58373;BME280;44177;43.356;27.672;2023-02-18T01:43:14;98506.38;;;5.74;67.00
58373;BME280;44177;43.356;27.672;2023-02-18T01:45:49;98515.16;;;5.80;66.96
58373;BME280;44177;43.356;27.672;2023-02-18T01:48:25;98513.56;;;5.79;67.00
58373;BME280;44177;43.356;27.672;2023-02-18T01:51:25;98505.13;;;5.80;67.03
58373;BME280;44177;43.356;27.672;2023-02-18T01:54:10;98503.22;;;5.81;66.96
58373;BME280;44177;43.356;27.672;2023-02-18T01:56:46;98497.78;;;5.81;67.15
58373;BME280;44177;43.356;27.672;2023-02-18T01:59:16;98484.88;;;5.78;66.96
58373;BME280;44177;43.356;27.672;2023-02-18T02:01:43;98481.09;;;5.79;67.05
58373;BME280;44177;43.356;27.672;2023-02-18T02:04:10;98476.78;;;5.78;67.15
58373;BME280;44177;43.356;27.672;2023-02-18T02:06:36;98477.38;;;5.75;67.21
58373;BME280;44177;43.356;27.672;2023-02-18T02:09:04;98480.06;;;5.75;67.04
58373;BME280;44177;43.356;27.672;2023-02-18T02:45:53;98503.72;;;5.83;67.19
58373;BME280;44177;43.356;27.672;2023-02-18T02:53:19;98490.19;;;5.83;67.26
58373;BME280;44177;43.356;27.672;2023-02-18T02:55:47;98493.97;;;5.82;67.16
58373;BME280;44177;43.356;27.672;2023-02-18T02:58:15;98492.88;;;5.83;67.18
58373;BME280;44177;43.356;27.672;2023-02-18T03:09:16;98479.34;;;5.83;67.28
58373;BME280;44177;43.356;27.672;2023-02-18T03:12:10;98486.69;;;5.82;67.12
58373;BME280;44177;43.356;27.672;2023-02-18T03:19:51;98483.97;;;5.82;67.18
58373;BME280;44177;43.356;27.672;2023-02-18T03:22:38;98471.22;;;5.83;67.21
58373;BME280;44177;43.356;27.672;2023-02-18T03:25:06;98480.16;;;5.83;67.26
58373;BME280;44177;43.356;27.672;2023-02-18T03:27:59;98472.81;;;5.84;67.33
58373;BME280;44177;43.356;27.672;2023-02-18T03:30:46;98471.72;;;5.85;67.27
58373;BME280;44177;43.356;27.672;2023-02-18T03:33:17;98458.97;;;5.85;67.18
58373;BME280;44177;43.356;27.672;2023-02-18T03:35:46;98453.09;;;5.83;67.28
58373;BME280;44177;43.356;27.672;2023-02-18T03:38:14;98455.97;;;5.87;67.25
58373;BME280;44177;43.356;27.672;2023-02-18T03:40:42;98466.81;;;5.87;67.26
58373;BME280;44177;43.356;27.672;2023-02-18T03:43:08;98459.78;;;5.86;67.27
58373;BME280;44177;43.356;27.672;2023-02-18T03:45:33;98458.69;;;5.87;67.35
58373;BME280;44177;43.356;27.672;2023-02-18T03:47:58;98458.69;;;5.87;67.31
58373;BME280;44177;43.356;27.672;2023-02-18T03:50:24;98461.38;;;5.87;67.14
58373;BME280;44177;43.356;27.672;2023-02-18T03:52:49;98463.28;;;5.87;67.19
58373;BME280;44177;43.356;27.672;2023-02-18T03:55:15;98459.78;;;5.86;67.17
58373;BME280;44177;43.356;27.672;2023-02-18T03:57:41;98464.88;;;5.88;67.24
58373;BME280;44177;43.356;27.672;2023-02-18T04:00:07;98452.13;;;5.88;67.25
58373;BME280;44177;43.356;27.672;2023-02-18T04:02:33;98452.13;;;5.88;67.22
58373;BME280;44177;43.356;27.672;2023-02-18T04:04:59;98453.72;;;5.89;67.13
58373;BME280;44177;43.356;27.672;2023-02-18T04:07:24;98448.31;;;5.89;67.22
58373;BME280;44177;43.356;27.672;2023-02-18T04:09:50;98448.31;;;5.89;67.15
58373;BME280;44177;43.356;27.672;2023-02-18T04:12:15;98449.91;;;5.90;67.23
58373;BME280;44177;43.356;27.672;2023-02-18T04:14:41;98457.25;;;5.90;67.19
58373;BME280;44177;43.356;27.672;2023-02-18T04:17:07;98437.50;;;5.89;67.20
58373;BME280;44177;43.356;27.672;2023-02-18T04:19:32;98437.19;;;5.91;67.23
58373;BME280;44177;43.356;27.672;2023-02-18T04:21:58;98437.19;;;5.91;67.11
58373;BME280;44177;43.356;27.672;2023-02-18T04:24:23;98429.88;;;5.91;67.27
58373;BME280;44177;43.356;27.672;2023-02-18T04:26:48;98435.28;;;5.91;67.19
58373;BME280;44177;43.356;27.672;2023-02-18T04:29:14;98429.06;;;5.91;67.23
58373;BME280;44177;43.356;27.672;2023-02-18T04:31:40;98405.94;;;5.84;67.11
58373;BME280;44177;43.356;27.672;2023-02-18T04:34:05;98410.91;;;5.91;67.09
58373;BME280;44177;43.356;27.672;2023-02-18T04:36:32;98410.91;;;5.91;67.18
58373;BME280;44177;43.356;27.672;2023-02-18T04:38:57;98396.25;;;5.92;67.31
58373;BME280;44177;43.356;27.672;2023-02-18T04:41:23;98406.31;;;5.92;67.21
58373;BME280;44177;43.356;27.672;2023-02-18T04:43:49;98397.88;;;5.93;67.16
58373;BME280;44177;43.356;27.672;2023-02-18T04:46:14;98405.19;;;5.93;67.19
58373;BME280;44177;43.356;27.672;2023-02-18T04:48:40;98403.28;;;5.93;67.18
58373;BME280;44177;43.356;27.672;2023-02-18T04:51:05;98395.16;;;5.93;67.09
58373;BME280;44177;43.356;27.672;2023-02-18T04:53:32;98387.34;;;5.92;67.27
58373;BME280;44177;43.356;27.672;2023-02-18T04:55:57;98382.72;;;5.92;67.11
58373;BME280;44177;43.356;27.672;2023-02-18T04:58:23;98383.84;;;5.91;67.29
58373;BME280;44177;43.356;27.672;2023-02-18T05:00:49;98395.16;;;5.93;67.19
58373;BME280;44177;43.356;27.672;2023-02-18T05:03:14;98391.34;;;5.94;67.22
58373;BME280;44177;43.356;27.672;2023-02-18T05:05:40;98392.44;;;5.93;67.25
58373;BME280;44177;43.356;27.672;2023-02-18T05:08:07;98388.13;;;5.92;67.31
58373;BME280;44177;43.356;27.672;2023-02-18T05:10:33;98388.63;;;5.94;67.29
58373;BME280;44177;43.356;27.672;2023-02-18T05:12:59;98392.94;;;5.95;67.25
58373;BME280;44177;43.356;27.672;2023-02-18T05:15:25;98382.13;;;5.95;67.25
58373;BME280;44177;43.356;27.672;2023-02-18T05:17:50;98382.13;;;5.95;67.22
58373;BME280;44177;43.356;27.672;2023-02-18T05:20:15;98388.63;;;5.94;67.27
58373;BME280;44177;43.356;27.672;2023-02-18T05:22:41;98389.75;;;5.93;67.28
58373;BME280;44177;43.356;27.672;2023-02-18T05:25:07;98398.38;;;5.95;67.21
58373;BME280;44177;43.356;27.672;2023-02-18T05:27:33;98396.44;;;5.96;67.09
58373;BME280;44177;43.356;27.672;2023-02-18T05:29:58;98398.38;;;5.95;67.08
58373;BME280;44177;43.356;27.672;2023-02-18T05:32:23;98401.06;;;5.95;67.16
58373;BME280;44177;43.356;27.672;2023-02-18T05:34:49;98399.94;;;5.96;67.16
58373;BME280;44177;43.356;27.672;2023-02-18T05:37:14;98393.72;;;5.96;67.16
58373;BME280;44177;43.356;27.672;2023-02-18T05:39:42;98398.38;;;5.95;67.14
58373;BME280;44177;43.356;27.672;2023-02-18T05:42:08;98388.00;;;5.97;67.12
58373;BME280;44177;43.356;27.672;2023-02-18T05:44:33;98402.34;;;5.98;67.17
58373;BME280;44177;43.356;27.672;2023-02-18T05:47:01;98400.75;;;5.97;67.18
58373;BME280;44177;43.356;27.672;2023-02-18T05:49:28;98393.41;;;5.97;67.09
58373;BME280;44177;43.356;27.672;2023-02-18T05:51:55;98394.53;;;5.96;67.19
58373;BME280;44177;43.356;27.672;2023-02-18T05:54:21;98404.25;;;5.97;67.31
58373;BME280;44177;43.356;27.672;2023-02-18T05:56:46;98388.00;;;5.97;67.19
58373;BME280;44177;43.356;27.672;2023-02-18T05:59:12;98396.94;;;5.98;67.11
58373;BME280;44177;43.356;27.672;2023-02-18T06:01:37;98386.09;;;5.98;67.20
58373;BME280;44177;43.356;27.672;2023-02-18T06:04:03;98380.69;;;5.98;67.20
58373;BME280;44177;43.356;27.672;2023-02-18T06:06:28;98389.59;;;5.98;67.24
58373;BME280;44177;43.356;27.672;2023-02-18T06:08:54;98397.22;;;5.96;67.24
58373;BME280;44177;43.356;27.672;2023-02-18T06:11:19;98385.28;;;5.97;67.20
58373;BME280;44177;43.356;27.672;2023-02-18T06:13:45;98388.00;;;5.97;67.22
58373;BME280;44177;43.356;27.672;2023-02-18T06:16:11;98386.88;;;5.98;67.34
58373;BME280;44177;43.356;27.672;2023-02-18T06:18:37;98384.19;;;5.98;67.42
58373;BME280;44177;43.356;27.672;2023-02-18T06:21:02;98393.94;;;5.99;67.25
58373;BME280;44177;43.356;27.672;2023-02-18T06:23:28;98388.53;;;5.99;67.08
58373;BME280;44177;43.356;27.672;2023-02-18T06:25:53;98391.22;;;5.99;67.18
58373;BME280;44177;43.356;27.672;2023-02-18T06:28:19;98391.22;;;5.99;67.24
58373;BME280;44177;43.356;27.672;2023-02-18T06:30:45;98382.31;;;5.99;67.33
58373;BME280;44177;43.356;27.672;2023-02-18T06:33:11;98384.72;;;6.00;67.30
58373;BME280;44177;43.356;27.672;2023-02-18T06:35:36;98376.59;;;6.00;67.26
58373;BME280;44177;43.356;27.672;2023-02-18T06:38:02;98388.19;;;6.01;67.32
58373;BME280;44177;43.356;27.672;2023-02-18T06:40:28;98379.28;;;6.00;67.32
58373;BME280;44177;43.356;27.672;2023-02-18T06:42:53;98385.50;;;6.01;67.28
58373;BME280;44177;43.356;27.672;2023-02-18T06:45:19;98391.72;;;6.02;67.26
58373;BME280;44177;43.356;27.672;2023-02-18T06:47:45;98389.03;;;6.02;67.29
58373;BME280;44177;43.356;27.672;2023-02-18T06:50:10;98396.03;;;6.03;67.25
58373;BME280;44177;43.356;27.672;2023-02-18T06:52:36;98393.34;;;6.03;67.30
58373;BME280;44177;43.356;27.672;2023-02-18T06:55:05;98401.44;;;6.03;67.25
58373;BME280;44177;43.356;27.672;2023-02-18T06:57:31;98391.41;;;6.03;67.25
58373;BME280;44177;43.356;27.672;2023-02-18T06:59:57;98394.94;;;6.04;67.10
58373;BME280;44177;43.356;27.672;2023-02-18T07:02:22;98400.34;;;6.04;67.23
58373;BME280;44177;43.356;27.672;2023-02-18T07:04:48;98399.22;;;6.05;67.23
58373;BME280;44177;43.356;27.672;2023-02-18T07:07:13;98401.13;;;6.04;67.26
58373;BME280;44177;43.356;27.672;2023-02-18T07:09:39;98400.34;;;6.04;67.29
58373;BME280;44177;43.356;27.672;2023-02-18T07:12:05;98408.94;;;6.06;67.22
58373;BME280;44177;43.356;27.672;2023-02-18T07:14:30;98400.34;;;6.04;67.14
58373;BME280;44177;43.356;27.672;2023-02-18T07:16:56;98403.84;;;6.04;67.17
58373;BME280;44177;43.356;27.672;2023-02-18T07:19:22;98415.16;;;6.06;67.10
58373;BME280;44177;43.356;27.672;2023-02-18T07:21:47;98407.84;;;6.07;67.19
58373;BME280;44177;43.356;27.672;2023-02-18T07:24:13;98399.72;;;6.07;67.18
58373;BME280;44177;43.356;27.672;2023-02-18T07:26:38;98399.38;;;6.08;67.15
58373;BME280;44177;43.356;27.672;2023-02-18T07:29:04;98400.19;;;6.09;67.12
58373;BME280;44177;43.356;27.672;2023-02-18T07:31:29;98399.09;;;6.10;67.25
58373;BME280;44177;43.356;27.672;2023-02-18T07:33:55;98397.16;;;6.10;67.03
58373;BME280;44177;43.356;27.672;2023-02-18T07:36:20;98396.06;;;6.11;66.97
58373;BME280;44177;43.356;27.672;2023-02-18T07:38:46;98399.56;;;6.12;67.02
58373;BME280;44177;43.356;27.672;2023-02-18T07:41:20;98387.63;;;6.13;66.96
58373;BME280;44177;43.356;27.672;2023-02-18T07:43:46;98389.22;;;6.14;66.98
58373;BME280;44177;43.356;27.672;2023-02-18T07:46:12;98380.31;;;6.13;66.94
58373;BME280;44177;43.356;27.672;2023-02-18T07:48:37;98381.09;;;6.14;66.83
58373;BME280;44177;43.356;27.672;2023-02-18T07:51:08;98387.00;;;6.16;66.85
58373;BME280;44177;43.356;27.672;2023-02-18T07:53:34;98395.13;;;6.16;66.91
58373;BME280;44177;43.356;27.672;2023-02-18T07:56:00;98395.13;;;6.16;66.83
58373;BME280;44177;43.356;27.672;2023-02-18T07:58:28;98397.06;;;6.15;66.80
58373;BME280;44177;43.356;27.672;2023-02-18T08:00:55;98386.16;;;6.07;66.69
58373;BME280;44177;43.356;27.672;2023-02-18T08:03:23;98400.22;;;6.18;66.87
58373;BME280;44177;43.356;27.672;2023-02-18T08:05:49;98384.31;;;6.16;66.83
58373;BME280;44177;43.356;27.672;2023-02-18T08:08:18;98388.59;;;6.17;66.79
58373;BME280;44177;43.356;27.672;2023-02-18T08:10:47;98382.88;;;6.19;66.89
58373;BME280;44177;43.356;27.672;2023-02-18T08:13:13;98381.28;;;6.18;66.99
58373;BME280;44177;43.356;27.672;2023-02-18T08:15:39;98386.41;;;6.19;66.78
58373;BME280;44177;43.356;27.672;2023-02-18T08:18:06;98381.44;;;6.21;66.88
58373;BME280;44177;43.356;27.672;2023-02-18T08:20:35;98391.16;;;6.22;66.91
58373;BME280;44177;43.356;27.672;2023-02-18T08:23:02;98377.31;;;6.24;66.75
58373;BME280;44177;43.356;27.672;2023-02-18T08:25:28;98378.91;;;6.25;66.80
58373;BME280;44177;43.356;27.672;2023-02-18T08:27:53;98366.66;;;6.27;66.74
58373;BME280;44177;43.356;27.672;2023-02-18T08:30:19;98369.38;;;6.27;66.75
58373;BME280;44177;43.356;27.672;2023-02-18T08:32:44;98375.25;;;6.29;66.75
58373;BME280;44177;43.356;27.672;2023-02-18T08:35:11;98366.03;;;6.30;66.72
58373;BME280;44177;43.356;27.672;2023-02-18T08:37:36;98368.41;;;6.32;66.66
58373;BME280;44177;43.356;27.672;2023-02-18T08:40:03;98361.59;;;6.35;66.69
58373;BME280;44177;43.356;27.672;2023-02-18T08:42:29;98365.88;;;6.36;66.86
58373;BME280;44177;43.356;27.672;2023-02-18T08:44:54;98363.66;;;6.38;66.80
58373;BME280;44177;43.356;27.672;2023-02-18T08:47:20;98345.16;;;6.31;66.83
58373;BME280;44177;43.356;27.672;2023-02-18T08:49:45;98364.13;;;6.40;66.79
58373;BME280;44177;43.356;27.672;2023-02-18T08:52:10;98357.13;;;6.39;66.59
58373;BME280;44177;43.356;27.672;2023-02-18T08:54:36;98365.25;;;6.39;66.78
58373;BME280;44177;43.356;27.672;2023-02-18T08:57:01;98367.97;;;6.39;66.75
58373;BME280;44177;43.356;27.672;2023-02-18T08:59:27;98376.09;;;6.39;66.80
58373;BME280;44177;43.356;27.672;2023-02-18T09:01:52;98371.78;;;6.38;66.83
58373;BME280;44177;43.356;27.672;2023-02-18T09:04:18;98362.38;;;6.35;66.97
58373;BME280;44177;43.356;27.672;2023-02-18T09:06:48;98372.88;;;6.37;66.89
58373;BME280;44177;43.356;27.672;2023-02-18T09:09:15;98371.78;;;6.38;67.09
58373;BME280;44177;43.356;27.672;2023-02-18T09:11:41;98371.78;;;6.38;66.97
58373;BME280;44177;43.356;27.672;2023-02-18T09:14:06;98361.75;;;6.38;66.80
58373;BME280;44177;43.356;27.672;2023-02-18T09:16:32;98350.09;;;6.38;67.05
58373;BME280;44177;43.356;27.672;2023-02-18T09:18:57;98343.56;;;6.39;67.03
58373;BME280;44177;43.356;27.672;2023-02-18T09:21:23;98332.25;;;6.37;66.91
58373;BME280;44177;43.356;27.672;2023-02-18T09:23:49;98325.53;;;6.34;67.08
58373;BME280;44177;43.356;27.672;2023-02-18T09:26:18;98323.00;;;6.38;67.16
58373;BME280;44177;43.356;27.672;2023-02-18T09:28:48;98319.19;;;6.39;67.16
58373;BME280;44177;43.356;27.672;2023-02-18T09:31:16;98322.22;;;6.37;67.03
58373;BME280;44177;43.356;27.672;2023-02-18T09:33:50;98316.47;;;6.39;67.15
58373;BME280;44177;43.356;27.672;2023-02-18T09:36:16;98312.16;;;6.38;67.07
58373;BME280;44177;43.356;27.672;2023-02-18T09:38:42;98301.31;;;6.38;67.00
58373;BME280;44177;43.356;27.672;2023-02-18T09:41:13;98304.03;;;6.38;67.04
58373;BME280;44177;43.356;27.672;2023-02-18T09:43:47;98304.03;;;6.38;67.02
58373;BME280;44177;43.356;27.672;2023-02-18T09:46:33;98301.31;;;6.38;66.99
58373;BME280;44177;43.356;27.672;2023-02-18T09:49:02;98302.13;;;6.38;67.16
58373;BME280;44177;43.356;27.672;2023-02-18T09:51:28;98297.84;;;6.37;67.01
58373;BME280;44177;43.356;27.672;2023-02-18T09:53:53;98294.31;;;6.37;67.07
58373;BME280;44177;43.356;27.672;2023-02-18T09:56:28;98284.28;;;6.37;67.23
58373;BME280;44177;43.356;27.672;2023-02-18T09:58:57;98282.34;;;6.38;67.19
58373;BME280;44177;43.356;27.672;2023-02-18T10:01:28;98283.47;;;6.37;67.19
58373;BME280;44177;43.356;27.672;2023-02-18T10:03:59;98283.47;;;6.37;67.34
58373;BME280;44177;43.356;27.672;2023-02-18T10:06:29;98265.31;;;6.37;67.36
58373;BME280;44177;43.356;27.672;2023-02-18T10:09:02;98268.03;;;6.37;67.47
58373;BME280;44177;43.356;27.672;2023-02-18T10:11:29;98268.81;;;6.38;67.21
58373;BME280;44177;43.356;27.672;2023-02-18T10:13:56;98266.09;;;6.38;67.50
58373;BME280;44177;43.356;27.672;2023-02-18T10:16:24;98261.78;;;6.37;67.24
58373;BME280;44177;43.356;27.672;2023-02-18T10:18:54;98238.34;;;6.23;67.65
58373;BME280;44177;43.356;27.672;2023-02-18T10:21:23;98268.47;;;6.39;67.45
58373;BME280;44177;43.356;27.672;2023-02-18T10:23:59;98266.59;;;6.40;67.46
58373;BME280;44177;43.356;27.672;2023-02-18T10:26:28;98265.47;;;6.41;67.37
58373;BME280;44177;43.356;27.672;2023-02-18T10:28:55;98260.06;;;6.41;67.51
58373;BME280;44177;43.356;27.672;2023-02-18T10:31:34;98257.34;;;6.41;67.54
58373;BME280;44177;43.356;27.672;2023-02-18T10:34:17;98263.56;;;6.41;67.27
58373;BME280;44177;43.356;27.672;2023-02-18T10:36:49;98253.03;;;6.40;67.54
58373;BME280;44177;43.356;27.672;2023-02-18T10:45:15;98251.94;;;6.41;67.72
58373;BME280;44177;43.356;27.672;2023-02-18T10:50:36;98233.44;;;6.43;67.72
58373;BME280;44177;43.356;27.672;2023-02-18T10:53:23;98234.56;;;6.42;67.77
58373;BME280;44177;43.356;27.672;2023-02-18T10:55:50;98224.97;;;6.36;67.62
58373;BME280;44177;43.356;27.672;2023-02-18T11:00:51;98225.00;;;6.44;67.64
58373;BME280;44177;43.356;27.672;2023-02-18T11:03:23;98230.41;;;6.44;67.59
58373;BME280;44177;43.356;27.672;2023-02-18T11:05:52;98239.31;;;6.45;67.67
58373;BME280;44177;43.356;27.672;2023-02-18T11:08:25;98219.53;;;6.36;67.82
58373;BME280;44177;43.356;27.672;2023-02-18T11:10:52;98228.97;;;6.47;67.69
58373;BME280;44177;43.356;27.672;2023-02-18T11:13:28;98236.00;;;6.48;67.75
58373;BME280;44177;43.356;27.672;2023-02-18T11:16:06;98216.22;;;6.39;67.77
58373;BME280;44177;43.356;27.672;2023-02-18T11:18:41;98234.88;;;6.49;67.71
58373;BME280;44177;43.356;27.672;2023-02-18T11:21:36;98231.06;;;6.50;67.62
58373;BME280;44177;43.356;27.672;2023-02-18T11:24:12;98233.44;;;6.52;67.83
58373;BME280;44177;43.356;27.672;2023-02-18T11:26:39;98229.91;;;6.51;67.90
58373;BME280;44177;43.356;27.672;2023-02-18T11:29:23;98222.28;;;6.53;67.82
58373;BME280;44177;43.356;27.672;2023-02-18T11:31:52;98206.81;;;6.54;67.78
58373;BME280;44177;43.356;27.672;2023-02-18T11:34:26;98220.03;;;6.55;67.65
58373;BME280;44177;43.356;27.672;2023-02-18T11:36:54;98210.31;;;6.54;67.62
58373;BME280;44177;43.356;27.672;2023-02-18T11:39:25;98214.00;;;6.58;67.94
58373;BME280;44177;43.356;27.672;2023-02-18T11:42:03;98204.72;;;6.59;67.83
58373;BME280;44177;43.356;27.672;2023-02-18T11:44:35;98191.66;;;6.61;67.75
58373;BME280;44177;43.356;27.672;2023-02-18T11:49:41;98196.44;;;6.64;67.67
58373;BME280;44177;43.356;27.672;2023-02-18T11:52:40;98192.13;;;6.63;67.54
58373;BME280;44177;43.356;27.672;2023-02-18T11:55:21;98186.22;;;6.61;67.54
58373;BME280;44177;43.356;27.672;2023-02-18T11:57:57;98177.47;;;6.56;67.85
58373;BME280;44177;43.356;27.672;2023-02-18T12:00:50;98193.75;;;6.64;67.72
58373;BME280;44177;43.356;27.672;2023-02-18T12:05:44;98186.72;;;6.63;67.83
58373;BME280;44177;43.356;27.672;2023-02-18T12:08:16;98186.72;;;6.63;68.02
58373;BME280;44177;43.356;27.672;2023-02-18T12:10:51;98178.59;;;6.63;67.97
58373;BME280;44177;43.356;27.672;2023-02-18T12:18:44;98171.56;;;6.62;67.65
58373;BME280;44177;43.356;27.672;2023-02-18T12:22:01;98173.94;;;6.64;67.94
58373;BME280;44177;43.356;27.672;2023-02-18T12:27:24;98173.16;;;6.63;68.07
58373;BME280;44177;43.356;27.672;2023-02-18T12:41:11;98181.78;;;6.66;67.66
58373;BME280;44177;43.356;27.672;2023-02-18T12:43:29;98173.66;;;6.66;67.90
58373;BME280;44177;43.356;27.672;2023-02-18T13:13:24;98153.06;;;6.64;68.37
58373;BME280;44177;43.356;27.672;2023-02-18T13:16:14;98150.03;;;6.66;68.44
58373;BME280;44177;43.356;27.672;2023-02-18T13:18:49;98150.50;;;6.59;68.35
58373;BME280;44177;43.356;27.672;2023-02-18T13:21:21;98158.16;;;6.66;68.54
58373;BME280;44177;43.356;27.672;2023-02-18T13:24:10;98151.97;;;6.66;68.51
58373;BME280;44177;43.356;27.672;2023-02-18T13:26:37;98131.09;;;6.57;68.27
58373;BME280;44177;43.356;27.672;2023-02-18T13:32:00;98143.50;;;6.67;68.64
58373;BME280;44177;43.356;27.672;2023-02-18T13:34:54;98147.00;;;6.68;68.60
58373;BME280;44177;43.356;27.672;2023-02-18T13:40:27;98143.50;;;6.67;68.72
58373;BME280;44177;43.356;27.672;2023-02-18T13:46:09;98145.88;;;6.69;68.55
58373;BME280;44177;43.356;27.672;2023-02-18T13:51:07;98145.59;;;6.70;68.57
58373;BME280;44177;43.356;27.672;2023-02-18T13:53:39;98149.41;;;6.69;68.50
58373;BME280;44177;43.356;27.672;2023-02-18T13:56:19;98142.06;;;6.70;68.60
58373;BME280;44177;43.356;27.672;2023-02-18T13:58:51;98150.19;;;6.70;68.38
58373;BME280;44177;43.356;27.672;2023-02-18T14:06:20;98149.06;;;6.71;68.55
58373;BME280;44177;43.356;27.672;2023-02-18T14:08:47;98140.94;;;6.71;68.50
58373;BME280;44177;43.356;27.672;2023-02-18T14:13:47;98136.00;;;6.73;68.56
58373;BME280;44177;43.356;27.672;2023-02-18T14:16:14;98142.22;;;6.73;68.51
58373;BME280;44177;43.356;27.672;2023-02-18T14:33:39;98132.66;;;6.67;68.69
58373;BME280;44177;43.356;27.672;2023-02-18T14:36:17;98140.75;;;6.76;68.79
58373;BME280;44177;43.356;27.672;2023-02-18T14:52:31;98125.78;;;6.78;69.96
58373;BME280;44177;43.356;27.672;2023-02-18T14:55:00;98121.94;;;6.79;70.41
58373;BME280;44177;43.356;27.672;2023-02-18T14:57:38;98132.47;;;6.81;70.53
58373;BME280;44177;43.356;27.672;2023-02-18T15:00:06;98131.34;;;6.82;70.73
58373;BME280;44177;43.356;27.672;2023-02-18T15:02:38;98131.66;;;6.89;70.94
58373;BME280;44177;43.356;27.672;2023-02-18T15:05:21;98129.41;;;6.91;70.88
58373;BME280;44177;43.356;27.672;2023-02-18T15:08:17;98134.97;;;6.95;71.16
58373;BME280;44177;43.356;27.672;2023-02-18T15:10:44;98142.81;;;6.97;70.83
58373;BME280;44177;43.356;27.672;2023-02-18T15:15:42;98127.47;;;7.01;70.91
58373;BME280;44177;43.356;27.672;2023-02-18T15:18:22;98130.66;;;7.03;70.97
58373;BME280;44177;43.356;27.672;2023-02-18T15:20:51;98126.81;;;7.04;70.58
58373;BME280;44177;43.356;27.672;2023-02-18T15:23:16;98127.94;;;7.03;70.35
58373;BME280;44177;43.356;27.672;2023-02-18T15:25:49;98126.81;;;7.04;69.98
58373;BME280;44177;43.356;27.672;2023-02-18T15:28:31;98123.00;;;7.05;69.34
58373;BME280;44177;43.356;27.672;2023-02-18T15:30:59;98120.28;;;7.05;69.34
58373;BME280;44177;43.356;27.672;2023-02-18T15:33:26;98121.41;;;7.04;69.14
58373;BME280;44177;43.356;27.672;2023-02-18T15:36:00;98118.69;;;7.04;69.12
58373;BME280;44177;43.356;27.672;2023-02-18T15:38:26;98113.41;;;6.99;68.99
58373;BME280;44177;43.356;27.672;2023-02-18T15:40:53;98120.44;;;7.00;68.95
58373;BME280;44177;43.356;27.672;2023-02-18T15:43:22;98125.88;;;7.00;69.05
58373;BME280;44177;43.356;27.672;2023-02-18T15:45:50;98127.94;;;7.03;68.90
58373;BME280;44177;43.356;27.672;2023-02-18T15:48:26;98124.44;;;7.02;68.90
58373;BME280;44177;43.356;27.672;2023-02-18T15:50:56;98123.63;;;7.02;69.02
58373;BME280;44177;43.356;27.672;2023-02-18T15:53:23;98114.38;;;7.03;69.02
58373;BME280;44177;43.356;27.672;2023-02-18T15:55:51;98124.44;;;7.02;68.77